Grenville, South Dakota
Current Conditions -  °F | °C
As of 9:34 PM on Sunday 21 Dec 2014 (Local Time) from KATY Reporting Station
Haze Haze  
Wind Chill: 26°   Ceiling: 400
Heat Index: 35°   Visibility: 5mi
Dew Point: 34°   Wind: 14mph
Humidity: 96%   Direction: 170°S
Pressure: 29.49"   Gusts: NA
Location:  45.47°N, 97.39°W
Report Text: KATY 220334Z AUTO 17012KT 5SM BR OVC004 02/01 A2949 RMK AO2 T00170011
Loading
Personal Weather Stations






























Interactive Weather Map New forecast layout! Learn more

10-Day Weather Forecast

Advertisements
Track Severe Weather on mobile